sensor_id;sensor_type;location;lat;lon;timestamp;pressure;altitude;pressure_sealevel;temperature;humidity
35419;BME280;21525;41.240;16.500;2022-07-23T00:00:51;101339.22;;;33.73;32.22
35419;BME280;21525;41.240;16.500;2022-07-23T00:03:17;101335.81;;;33.53;31.82
35419;BME280;21525;41.240;16.500;2022-07-23T00:05:43;101343.38;;;33.50;32.39
35419;BME280;21525;41.240;16.500;2022-07-23T00:08:09;101344.38;;;33.66;32.22
35419;BME280;21525;41.240;16.500;2022-07-23T00:10:35;101338.91;;;33.76;32.22
35419;BME280;21525;41.240;16.500;2022-07-23T00:13:01;101344.47;;;33.39;32.96
35419;BME280;21525;41.240;16.500;2022-07-23T00:15:27;101339.31;;;33.18;32.89
35419;BME280;21525;41.240;16.500;2022-07-23T00:17:52;101335.38;;;33.40;32.41
35419;BME280;21525;41.240;16.500;2022-07-23T00:20:18;101339.88;;;32.94;32.78
35419;BME280;21525;41.240;16.500;2022-07-23T00:22:48;101329.75;;;33.33;31.65
35419;BME280;21525;41.240;16.500;2022-07-23T00:25:14;101330.03;;;33.30;32.07
35419;BME280;21525;41.240;16.500;2022-07-23T00:27:40;101333.75;;;33.29;32.12
35419;BME280;21525;41.240;16.500;2022-07-23T00:30:06;101331.59;;;33.68;31.50
35419;BME280;21525;41.240;16.500;2022-07-23T00:32:32;101329.19;;;33.30;32.54
35419;BME280;21525;41.240;16.500;2022-07-23T00:34:59;101336.53;;;33.10;32.70
35419;BME280;21525;41.240;16.500;2022-07-23T00:37:24;101328.06;;;33.23;32.72
35419;BME280;21525;41.240;16.500;2022-07-23T00:39:51;101331.38;;;33.44;32.49
35419;BME280;21525;41.240;16.500;2022-07-23T00:42:16;101326.97;;;33.16;32.67
35419;BME280;21525;41.240;16.500;2022-07-23T00:44:42;101335.22;;;33.59;32.41
35419;BME280;21525;41.240;16.500;2022-07-23T00:47:09;101331.75;;;33.22;33.01
35419;BME280;21525;41.240;16.500;2022-07-23T00:49:35;101329.69;;;33.43;32.61
35419;BME280;21525;41.240;16.500;2022-07-23T00:52:02;101330.91;;;33.21;32.78
35419;BME280;21525;41.240;16.500;2022-07-23T00:54:28;101319.25;;;33.30;32.37
35419;BME280;21525;41.240;16.500;2022-07-23T00:56:54;101321.72;;;33.14;32.78
35419;BME280;21525;41.240;16.500;2022-07-23T00:59:20;101323.13;;;33.18;32.46
35419;BME280;21525;41.240;16.500;2022-07-23T01:01:46;101323.34;;;33.34;32.80
35419;BME280;21525;41.240;16.500;2022-07-23T01:04:15;101321.66;;;33.69;32.01
35419;BME280;21525;41.240;16.500;2022-07-23T01:06:42;101318.59;;;33.46;32.22
35419;BME280;21525;41.240;16.500;2022-07-23T01:09:09;101323.03;;;33.91;32.36
35419;BME280;21525;41.240;16.500;2022-07-23T01:11:36;101318.38;;;33.12;32.97
35419;BME280;21525;41.240;16.500;2022-07-23T01:14:17;101322.97;;;33.02;32.55
35419;BME280;21525;41.240;16.500;2022-07-23T01:16:45;101322.91;;;33.39;32.52
35419;BME280;21525;41.240;16.500;2022-07-23T01:19:12;101322.44;;;33.44;32.73
35419;BME280;21525;41.240;16.500;2022-07-23T01:21:40;101320.75;;;33.43;32.27
35419;BME280;21525;41.240;16.500;2022-07-23T01:24:07;101312.97;;;33.40;32.95
35419;BME280;21525;41.240;16.500;2022-07-23T01:26:36;101316.34;;;33.59;32.67
35419;BME280;21525;41.240;16.500;2022-07-23T01:29:03;101326.41;;;33.57;32.46
35419;BME280;21525;41.240;16.500;2022-07-23T01:31:30;101318.41;;;33.65;32.29
35419;BME280;21525;41.240;16.500;2022-07-23T01:33:57;101314.63;;;33.76;32.67
35419;BME280;21525;41.240;16.500;2022-07-23T01:36:22;101319.56;;;33.98;31.97
35419;BME280;21525;41.240;16.500;2022-07-23T01:38:49;101314.00;;;33.47;32.02
35419;BME280;21525;41.240;16.500;2022-07-23T01:41:15;101318.78;;;33.53;31.92
35419;BME280;21525;41.240;16.500;2022-07-23T01:43:41;101307.94;;;33.62;31.58
35419;BME280;21525;41.240;16.500;2022-07-23T01:46:07;101318.09;;;33.51;31.50
35419;BME280;21525;41.240;16.500;2022-07-23T01:48:39;101311.25;;;33.74;31.49
35419;BME280;21525;41.240;16.500;2022-07-23T01:51:20;101315.94;;;33.54;31.56
35419;BME280;21525;41.240;16.500;2022-07-23T01:53:56;101309.06;;;33.24;31.65
35419;BME280;21525;41.240;16.500;2022-07-23T01:56:22;101316.88;;;33.27;31.67
35419;BME280;21525;41.240;16.500;2022-07-23T01:58:48;101315.78;;;33.56;31.71
35419;BME280;21525;41.240;16.500;2022-07-23T02:01:14;101308.50;;;33.21;31.88
35419;BME280;21525;41.240;16.500;2022-07-23T02:03:40;101316.97;;;33.35;31.87
35419;BME280;21525;41.240;16.500;2022-07-23T02:06:06;101307.50;;;33.04;32.39
35419;BME280;21525;41.240;16.500;2022-07-23T02:08:33;101303.81;;;33.23;32.44
35419;BME280;21525;41.240;16.500;2022-07-23T02:11:01;101305.00;;;32.93;32.26
35419;BME280;21525;41.240;16.500;2022-07-23T02:13:26;101299.91;;;32.90;32.25
35419;BME280;21525;41.240;16.500;2022-07-23T02:15:54;101300.88;;;33.16;31.39
35419;BME280;21525;41.240;16.500;2022-07-23T02:18:20;101309.88;;;33.07;31.84
35419;BME280;21525;41.240;16.500;2022-07-23T02:20:46;101303.81;;;33.23;32.05
35419;BME280;21525;41.240;16.500;2022-07-23T02:23:12;101307.81;;;33.46;31.88
35419;BME280;21525;41.240;16.500;2022-07-23T02:25:38;101300.53;;;33.64;31.37
35419;BME280;21525;41.240;16.500;2022-07-23T02:28:04;101300.31;;;33.58;31.67
35419;BME280;21525;41.240;16.500;2022-07-23T02:30:30;101305.56;;;33.42;31.72
35419;BME280;21525;41.240;16.500;2022-07-23T02:32:56;101302.88;;;33.14;32.13
35419;BME280;21525;41.240;16.500;2022-07-23T02:35:23;101304.50;;;33.25;32.05
35419;BME280;21525;41.240;16.500;2022-07-23T02:37:49;101303.81;;;33.23;31.75
35419;BME280;21525;41.240;16.500;2022-07-23T02:40:15;101305.63;;;33.50;31.38
35419;BME280;21525;41.240;16.500;2022-07-23T02:42:42;101303.25;;;33.19;31.82
35419;BME280;21525;41.240;16.500;2022-07-23T02:45:09;101312.16;;;33.47;31.74
35419;BME280;21525;41.240;16.500;2022-07-23T02:47:35;101305.66;;;33.04;32.24
35419;BME280;21525;41.240;16.500;2022-07-23T02:50:01;101309.28;;;32.86;32.62
35419;BME280;21525;41.240;16.500;2022-07-23T02:52:28;101308.53;;;32.93;32.80
35419;BME280;21525;41.240;16.500;2022-07-23T02:54:54;101303.56;;;33.44;32.52
35419;BME280;21525;41.240;16.500;2022-07-23T02:57:20;101302.22;;;33.65;32.05
35419;BME280;21525;41.240;16.500;2022-07-23T02:59:46;101309.75;;;33.09;32.94
35419;BME280;21525;41.240;16.500;2022-07-23T03:02:12;101309.59;;;32.83;32.80
35419;BME280;21525;41.240;16.500;2022-07-23T03:04:38;101310.53;;;33.54;32.24
35419;BME280;21525;41.240;16.500;2022-07-23T03:07:04;101311.16;;;33.30;32.63
35419;BME280;21525;41.240;16.500;2022-07-23T03:09:30;101305.03;;;33.11;32.88
35419;BME280;21525;41.240;16.500;2022-07-23T03:11:56;101302.00;;;33.59;32.11
35419;BME280;21525;41.240;16.500;2022-07-23T03:14:21;101306.47;;;33.68;32.42
35419;BME280;21525;41.240;16.500;2022-07-23T03:16:49;101302.66;;;33.08;32.81
35419;BME280;21525;41.240;16.500;2022-07-23T03:19:15;101307.16;;;33.52;32.43
35419;BME280;21525;41.240;16.500;2022-07-23T03:21:41;101308.00;;;33.70;32.22
35419;BME280;21525;41.240;16.500;2022-07-23T03:24:08;101310.00;;;33.51;32.95
35419;BME280;21525;41.240;16.500;2022-07-23T03:26:35;101312.34;;;33.46;33.16
35419;BME280;21525;41.240;16.500;2022-07-23T03:29:02;101311.13;;;32.85;33.79
35419;BME280;21525;41.240;16.500;2022-07-23T03:31:30;101309.00;;;32.89;34.98
35419;BME280;21525;41.240;16.500;2022-07-23T03:33:57;101314.19;;;33.00;36.80
35419;BME280;21525;41.240;16.500;2022-07-23T03:36:23;101314.31;;;32.34;39.63
35419;BME280;21525;41.240;16.500;2022-07-23T03:38:51;101318.16;;;32.78;39.62
35419;BME280;21525;41.240;16.500;2022-07-23T03:41:17;101312.06;;;32.66;40.90
35419;BME280;21525;41.240;16.500;2022-07-23T03:43:44;101315.97;;;33.09;40.16
35419;BME280;21525;41.240;16.500;2022-07-23T03:46:11;101313.25;;;33.36;37.33
35419;BME280;21525;41.240;16.500;2022-07-23T03:48:37;101309.88;;;33.34;36.68
35419;BME280;21525;41.240;16.500;2022-07-23T03:51:03;101320.09;;;33.49;36.23
35419;BME280;21525;41.240;16.500;2022-07-23T03:53:29;101314.31;;;33.79;35.74
35419;BME280;21525;41.240;16.500;2022-07-23T03:55:55;101312.09;;;33.57;36.13
35419;BME280;21525;41.240;16.500;2022-07-23T03:58:22;101311.84;;;34.03;36.44
35419;BME280;21525;41.240;16.500;2022-07-23T04:00:48;101313.31;;;33.62;36.98
35419;BME280;21525;41.240;16.500;2022-07-23T04:03:14;101309.06;;;33.95;36.99
35419;BME280;21525;41.240;16.500;2022-07-23T04:05:41;101312.72;;;34.12;36.14
35419;BME280;21525;41.240;16.500;2022-07-23T04:08:11;101302.19;;;34.53;35.43
35419;BME280;21525;41.240;16.500;2022-07-23T04:10:40;101309.19;;;35.22;34.54
35419;BME280;21525;41.240;16.500;2022-07-23T04:13:07;101305.78;;;35.03;34.76
35419;BME280;21525;41.240;16.500;2022-07-23T04:15:33;101308.66;;;35.02;34.18
35419;BME280;21525;41.240;16.500;2022-07-23T04:17:59;101304.03;;;34.86;34.48
35419;BME280;21525;41.240;16.500;2022-07-23T04:20:34;101306.81;;;35.02;34.10
35419;BME280;21525;41.240;16.500;2022-07-23T04:23:02;101305.41;;;35.41;33.76
35419;BME280;21525;41.240;16.500;2022-07-23T04:25:28;101307.34;;;36.44;32.05
35419;BME280;21525;41.240;16.500;2022-07-23T04:27:54;101313.66;;;36.84;31.55
35419;BME280;21525;41.240;16.500;2022-07-23T04:30:20;101307.41;;;37.60;31.07
35419;BME280;21525;41.240;16.500;2022-07-23T04:32:45;101299.50;;;38.84;29.51
35419;BME280;21525;41.240;16.500;2022-07-23T04:35:18;101308.44;;;39.50;28.55
35419;BME280;21525;41.240;16.500;2022-07-23T04:37:44;101304.59;;;39.23;29.14
35419;BME280;21525;41.240;16.500;2022-07-23T04:40:11;101299.13;;;39.87;27.93
35419;BME280;21525;41.240;16.500;2022-07-23T04:42:37;101300.88;;;40.57;27.98
35419;BME280;21525;41.240;16.500;2022-07-23T04:45:04;101298.34;;;41.10;27.40
35419;BME280;21525;41.240;16.500;2022-07-23T04:47:30;101297.16;;;41.39;27.07
35419;BME280;21525;41.240;16.500;2022-07-23T04:49:57;101294.25;;;41.87;26.13
35419;BME280;21525;41.240;16.500;2022-07-23T04:52:24;101300.13;;;42.17;25.83
35419;BME280;21525;41.240;16.500;2022-07-23T04:54:50;101298.00;;;42.19;26.26
35419;BME280;21525;41.240;16.500;2022-07-23T04:57:16;101298.66;;;42.08;26.53
35419;BME280;21525;41.240;16.500;2022-07-23T04:59:42;101300.84;;;43.08;25.97
35419;BME280;21525;41.240;16.500;2022-07-23T05:02:09;101289.09;;;43.64;25.56
35419;BME280;21525;41.240;16.500;2022-07-23T05:04:34;101292.13;;;42.80;26.18
35419;BME280;21525;41.240;16.500;2022-07-23T05:07:02;101295.38;;;42.57;26.70
35419;BME280;21525;41.240;16.500;2022-07-23T05:09:28;101291.72;;;43.77;25.57
35419;BME280;21525;41.240;16.500;2022-07-23T05:11:54;101288.84;;;45.30;23.79
35419;BME280;21525;41.240;16.500;2022-07-23T05:14:21;101292.09;;;44.79;24.09
35419;BME280;21525;41.240;16.500;2022-07-23T05:16:48;101290.59;;;44.10;25.21
35419;BME280;21525;41.240;16.500;2022-07-23T05:19:20;101303.59;;;43.89;25.26
35419;BME280;21525;41.240;16.500;2022-07-23T05:21:46;101297.47;;;43.69;25.79
35419;BME280;21525;41.240;16.500;2022-07-23T05:24:13;101289.81;;;44.76;25.17
35419;BME280;21525;41.240;16.500;2022-07-23T05:26:39;101294.41;;;44.45;25.49
35419;BME280;21525;41.240;16.500;2022-07-23T05:29:05;101304.00;;;44.54;25.13
35419;BME280;21525;41.240;16.500;2022-07-23T05:31:31;101304.28;;;44.65;24.92
35419;BME280;21525;41.240;16.500;2022-07-23T05:33:58;101305.31;;;45.00;24.71
35419;BME280;21525;41.240;16.500;2022-07-23T05:36:25;101310.28;;;45.86;24.11
35419;BME280;21525;41.240;16.500;2022-07-23T05:38:54;101304.44;;;46.41;23.66
35419;BME280;21525;41.240;16.500;2022-07-23T05:41:20;101297.91;;;46.71;23.64
35419;BME280;21525;41.240;16.500;2022-07-23T05:43:46;101305.56;;;45.52;24.55
35419;BME280;21525;41.240;16.500;2022-07-23T05:46:14;101304.75;;;44.25;25.59
35419;BME280;21525;41.240;16.500;2022-07-23T05:48:41;101306.66;;;44.06;25.71
35419;BME280;21525;41.240;16.500;2022-07-23T05:51:30;101317.53;;;42.42;27.35
35419;BME280;21525;41.240;16.500;2022-07-23T05:53:56;101318.66;;;42.73;27.20
35419;BME280;21525;41.240;16.500;2022-07-23T05:56:26;101315.41;;;42.31;27.46
35419;BME280;21525;41.240;16.500;2022-07-23T05:58:52;101304.66;;;42.56;27.64
35419;BME280;21525;41.240;16.500;2022-07-23T06:01:19;101302.84;;;42.88;27.66
35419;BME280;21525;41.240;16.500;2022-07-23T06:04:07;101304.22;;;43.42;26.91
35419;BME280;21525;41.240;16.500;2022-07-23T06:06:36;101313.50;;;42.38;28.62
35419;BME280;21525;41.240;16.500;2022-07-23T06:09:02;101311.97;;;43.13;28.06
35419;BME280;21525;41.240;16.500;2022-07-23T06:11:28;101309.19;;;42.82;28.45
35419;BME280;21525;41.240;16.500;2022-07-23T06:13:55;101314.22;;;42.14;29.42
35419;BME280;21525;41.240;16.500;2022-07-23T06:16:27;101304.28;;;42.46;29.69
35419;BME280;21525;41.240;16.500;2022-07-23T06:18:54;101313.16;;;41.88;30.17
35419;BME280;21525;41.240;16.500;2022-07-23T06:21:20;101309.03;;;42.64;29.70
35419;BME280;21525;41.240;16.500;2022-07-23T06:23:46;101312.31;;;41.68;30.72
35419;BME280;21525;41.240;16.500;2022-07-23T06:26:12;101313.38;;;42.13;30.39
35419;BME280;21525;41.240;16.500;2022-07-23T06:28:38;101306.59;;;41.37;31.11
35419;BME280;21525;41.240;16.500;2022-07-23T06:31:05;101309.38;;;41.63;31.73
35419;BME280;21525;41.240;16.500;2022-07-23T06:33:30;101296.94;;;41.21;32.22
35419;BME280;21525;41.240;16.500;2022-07-23T06:35:58;101311.84;;;41.18;32.82
35419;BME280;21525;41.240;16.500;2022-07-23T06:38:24;101313.63;;;40.98;33.69
35419;BME280;21525;41.240;16.500;2022-07-23T06:40:50;101316.16;;;40.93;34.06
35419;BME280;21525;41.240;16.500;2022-07-23T06:43:16;101304.72;;;41.44;33.09
35419;BME280;21525;41.240;16.500;2022-07-23T06:45:44;101313.56;;;41.92;32.52
35419;BME280;21525;41.240;16.500;2022-07-23T06:48:10;101315.75;;;40.61;33.70
35419;BME280;21525;41.240;16.500;2022-07-23T06:50:36;101319.53;;;39.98;34.99
35419;BME280;21525;41.240;16.500;2022-07-23T06:53:02;101318.84;;;40.17;34.76
35419;BME280;21525;41.240;16.500;2022-07-23T06:55:27;101316.38;;;39.73;35.51
35419;BME280;21525;41.240;16.500;2022-07-23T06:57:53;101323.63;;;39.45;36.67
35419;BME280;21525;41.240;16.500;2022-07-23T07:00:20;101320.25;;;39.57;36.63
35419;BME280;21525;41.240;16.500;2022-07-23T07:02:46;101318.13;;;39.38;36.74
35419;BME280;21525;41.240;16.500;2022-07-23T07:05:12;101320.56;;;39.12;38.29
35419;BME280;21525;41.240;16.500;2022-07-23T07:07:38;101320.88;;;39.02;38.04
35419;BME280;21525;41.240;16.500;2022-07-23T07:10:04;101321.88;;;39.16;37.55
35419;BME280;21525;41.240;16.500;2022-07-23T07:12:30;101320.09;;;40.84;35.57
35419;BME280;21525;41.240;16.500;2022-07-23T07:14:56;101317.13;;;41.59;33.62
35419;BME280;21525;41.240;16.500;2022-07-23T07:17:23;101318.59;;;40.40;34.68
35419;BME280;21525;41.240;16.500;2022-07-23T07:19:48;101325.25;;;39.39;36.43
35419;BME280;21525;41.240;16.500;2022-07-23T07:22:14;101324.44;;;38.88;37.67
35419;BME280;21525;41.240;16.500;2022-07-23T07:24:40;101320.19;;;39.79;35.47
35419;BME280;21525;41.240;16.500;2022-07-23T07:27:06;101324.56;;;38.80;36.78
35419;BME280;21525;41.240;16.500;2022-07-23T07:29:32;101325.31;;;37.92;39.21
35419;BME280;21525;41.240;16.500;2022-07-23T07:31:58;101325.13;;;38.46;38.42
35419;BME280;21525;41.240;16.500;2022-07-23T07:34:24;101332.69;;;37.83;39.54
35419;BME280;21525;41.240;16.500;2022-07-23T07:36:50;101324.84;;;37.88;39.28
35419;BME280;21525;41.240;16.500;2022-07-23T07:39:16;101323.53;;;37.84;39.06
35419;BME280;21525;41.240;16.500;2022-07-23T07:41:41;101329.03;;;38.14;38.70
35419;BME280;21525;41.240;16.500;2022-07-23T07:44:07;101330.22;;;38.11;38.47
35419;BME280;21525;41.240;16.500;2022-07-23T07:46:33;101325.81;;;37.95;38.59
35419;BME280;21525;41.240;16.500;2022-07-23T07:48:59;101327.97;;;37.77;39.36
35419;BME280;21525;41.240;16.500;2022-07-23T07:51:26;101329.44;;;37.65;39.13
35419;BME280;21525;41.240;16.500;2022-07-23T07:53:52;101331.25;;;37.27;39.83
35419;BME280;21525;41.240;16.500;2022-07-23T07:56:18;101329.66;;;37.02;40.44
35419;BME280;21525;41.240;16.500;2022-07-23T07:58:44;101336.69;;;36.72;43.01
35419;BME280;21525;41.240;16.500;2022-07-23T08:01:10;101347.38;;;37.12;43.81
35419;BME280;21525;41.240;16.500;2022-07-23T08:03:36;101356.66;;;35.16;51.49
35419;BME280;21525;41.240;16.500;2022-07-23T08:06:02;101358.03;;;36.27;51.92
35419;BME280;21525;41.240;16.500;2022-07-23T08:08:28;101352.78;;;36.89;50.20
35419;BME280;21525;41.240;16.500;2022-07-23T08:10:54;101352.78;;;35.93;53.13
35419;BME280;21525;41.240;16.500;2022-07-23T08:13:19;101353.06;;;37.33;48.29
35419;BME280;21525;41.240;16.500;2022-07-23T08:15:45;101366.44;;;36.41;48.92
35419;BME280;21525;41.240;16.500;2022-07-23T08:18:11;101367.28;;;35.76;49.72
35419;BME280;21525;41.240;16.500;2022-07-23T08:20:38;101364.19;;;36.60;49.97
35419;BME280;21525;41.240;16.500;2022-07-23T08:23:06;101354.75;;;37.57;46.47
35419;BME280;21525;41.240;16.500;2022-07-23T08:25:35;101359.44;;;37.41;45.74
35419;BME280;21525;41.240;16.500;2022-07-23T08:28:02;101355.78;;;36.15;49.84
35419;BME280;21525;41.240;16.500;2022-07-23T08:30:29;101371.19;;;35.65;51.61
35419;BME280;21525;41.240;16.500;2022-07-23T08:32:59;101380.16;;;35.08;52.89
35419;BME280;21525;41.240;16.500;2022-07-23T08:35:27;101364.09;;;35.81;53.34
35419;BME280;21525;41.240;16.500;2022-07-23T08:37:54;101361.75;;;37.52;47.44
35419;BME280;21525;41.240;16.500;2022-07-23T08:40:20;101370.38;;;37.32;46.73
35419;BME280;21525;41.240;16.500;2022-07-23T08:42:50;101360.41;;;36.06;50.69
35419;BME280;21525;41.240;16.500;2022-07-23T08:45:19;101363.25;;;36.37;50.21
35419;BME280;21525;41.240;16.500;2022-07-23T08:47:50;101365.47;;;35.85;51.52
35419;BME280;21525;41.240;16.500;2022-07-23T08:50:16;101368.81;;;36.11;52.62
35419;BME280;21525;41.240;16.500;2022-07-23T08:52:42;101380.88;;;36.00;53.71
35419;BME280;21525;41.240;16.500;2022-07-23T08:55:09;101365.47;;;35.85;53.37
35419;BME280;21525;41.240;16.500;2022-07-23T08:57:35;101371.03;;;36.16;52.74
35419;BME280;21525;41.240;16.500;2022-07-23T09:00:02;101367.31;;;36.09;53.50
35419;BME280;21525;41.240;16.500;2022-07-23T09:02:28;101374.44;;;35.85;53.52
35419;BME280;21525;41.240;16.500;2022-07-23T09:04:54;101368.03;;;37.52;49.55
35419;BME280;21525;41.240;16.500;2022-07-23T09:07:20;101362.59;;;36.03;53.88
35419;BME280;21525;41.240;16.500;2022-07-23T09:09:46;101361.94;;;37.19;51.54
35419;BME280;21525;41.240;16.500;2022-07-23T09:12:12;101360.34;;;38.24;47.96
35419;BME280;21525;41.240;16.500;2022-07-23T09:14:43;101361.88;;;36.96;52.06
35419;BME280;21525;41.240;16.500;2022-07-23T09:17:15;101364.41;;;36.43;52.78
35419;BME280;21525;41.240;16.500;2022-07-23T09:19:42;101366.69;;;37.17;50.32
35419;BME280;21525;41.240;16.500;2022-07-23T09:22:26;101367.50;;;37.57;48.95
35419;BME280;21525;41.240;16.500;2022-07-23T09:25:16;101362.94;;;36.87;50.67
35419;BME280;21525;41.240;16.500;2022-07-23T09:27:54;101359.44;;;37.41;50.98
35419;BME280;21525;41.240;16.500;2022-07-23T09:30:23;101360.41;;;37.17;49.57
35419;BME280;21525;41.240;16.500;2022-07-23T09:35:48;101362.59;;;37.52;49.35
35419;BME280;21525;41.240;16.500;2022-07-23T09:38:15;101371.88;;;38.56;46.64
35419;BME280;21525;41.240;16.500;2022-07-23T09:40:41;101368.03;;;37.98;49.47
35419;BME280;21525;41.240;16.500;2022-07-23T09:43:07;101361.84;;;38.27;47.97
35419;BME280;21525;41.240;16.500;2022-07-23T09:45:33;101362.22;;;38.24;44.70
35419;BME280;21525;41.240;16.500;2022-07-23T09:48:16;101363.84;;;37.42;42.89
35419;BME280;21525;41.240;16.500;2022-07-23T09:50:44;101365.78;;;37.33;46.62
35419;BME280;21525;41.240;16.500;2022-07-23T09:53:23;101360.06;;;37.96;39.10
35419;BME280;21525;41.240;16.500;2022-07-23T09:55:51;101352.00;;;36.64;46.85
35419;BME280;21525;41.240;16.500;2022-07-23T09:58:21;101347.41;;;38.41;43.65
35419;BME280;21525;41.240;16.500;2022-07-23T10:00:48;101352.06;;;37.35;44.23
35419;BME280;21525;41.240;16.500;2022-07-23T10:03:17;101343.41;;;37.54;44.46
35419;BME280;21525;41.240;16.500;2022-07-23T10:06:13;101347.94;;;37.84;41.76
35419;BME280;21525;41.240;16.500;2022-07-23T10:08:59;101356.03;;;38.30;43.74
35419;BME280;21525;41.240;16.500;2022-07-23T10:12:01;101348.47;;;36.48;48.08
35419;BME280;21525;41.240;16.500;2022-07-23T10:14:57;101350.22;;;36.88;47.19
35419;BME280;21525;41.240;16.500;2022-07-23T10:17:23;101348.38;;;37.50;52.42
35419;BME280;21525;41.240;16.500;2022-07-23T10:19:49;101343.34;;;37.08;51.17
35419;BME280;21525;41.240;16.500;2022-07-23T10:22:22;101349.03;;;37.29;51.15
35419;BME280;21525;41.240;16.500;2022-07-23T10:30:38;101352.25;;;36.94;56.47
35419;BME280;21525;41.240;16.500;2022-07-23T10:33:31;101341.41;;;36.39;52.85
35419;BME280;21525;41.240;16.500;2022-07-23T10:39:03;101333.28;;;37.71;51.90
35419;BME280;21525;41.240;16.500;2022-07-23T10:41:39;101341.25;;;37.18;54.57
35419;BME280;21525;41.240;16.500;2022-07-23T10:44:13;101347.53;;;36.00;56.70
35419;BME280;21525;41.240;16.500;2022-07-23T10:47:04;101344.13;;;36.14;58.25
35419;BME280;21525;41.240;16.500;2022-07-23T10:49:49;101345.97;;;35.57;59.00
35419;BME280;21525;41.240;16.500;2022-07-23T10:57:12;101337.53;;;35.60;54.27
35419;BME280;21525;41.240;16.500;2022-07-23T11:02:23;101327.38;;;37.21;46.56
35419;BME280;21525;41.240;16.500;2022-07-23T11:04:50;101323.97;;;35.44;49.55
35419;BME280;21525;41.240;16.500;2022-07-23T11:07:17;101321.06;;;36.43;49.02
35419;BME280;21525;41.240;16.500;2022-07-23T11:09:43;101310.97;;;36.28;52.53
35419;BME280;21525;41.240;16.500;2022-07-23T11:15:08;101315.19;;;36.31;56.34
35419;BME280;21525;41.240;16.500;2022-07-23T11:27:40;101318.56;;;35.52;62.22
35419;BME280;21525;41.240;16.500;2022-07-23T11:30:08;101313.47;;;34.82;63.81
35419;BME280;21525;41.240;16.500;2022-07-23T11:32:36;101320.94;;;34.88;61.90
35419;BME280;21525;41.240;16.500;2022-07-23T11:35:25;101312.63;;;35.48;61.86
35419;BME280;21525;41.240;16.500;2022-07-23T11:38:03;101320.44;;;34.93;66.54
35419;BME280;21525;41.240;16.500;2022-07-23T11:40:30;101317.72;;;35.43;65.27
35419;BME280;21525;41.240;16.500;2022-07-23T11:43:04;101301.66;;;36.31;60.37
35419;BME280;21525;41.240;16.500;2022-07-23T11:45:40;101308.44;;;36.03;60.55
35419;BME280;21525;41.240;16.500;2022-07-23T11:48:14;101315.13;;;35.25;65.00
35419;BME280;21525;41.240;16.500;2022-07-23T11:50:41;101320.59;;;35.50;62.88
35419;BME280;21525;41.240;16.500;2022-07-23T11:53:06;101301.69;;;35.98;60.75
35419;BME280;21525;41.240;16.500;2022-07-23T11:55:32;101311.47;;;35.59;62.00
35419;BME280;21525;41.240;16.500;2022-07-23T11:57:58;101296.88;;;36.72;54.77
35419;BME280;21525;41.240;16.500;2022-07-23T12:00:27;101308.44;;;37.59;52.45
35419;BME280;21525;41.240;16.500;2022-07-23T12:02:59;101302.72;;;37.00;53.67
35419;BME280;21525;41.240;16.500;2022-07-23T12:05:29;101305.41;;;35.73;57.38
35419;BME280;21525;41.240;16.500;2022-07-23T12:07:56;101308.34;;;36.43;54.01
35419;BME280;21525;41.240;16.500;2022-07-23T12:10:28;101297.97;;;35.99;52.62
35419;BME280;21525;41.240;16.500;2022-07-23T12:12:58;101308.84;;;34.66;54.62
35419;BME280;21525;41.240;16.500;2022-07-23T12:15:34;101301.00;;;35.64;56.22
35419;BME280;21525;41.240;16.500;2022-07-23T12:18:03;101300.16;;;35.55;56.28
35419;BME280;21525;41.240;16.500;2022-07-23T12:20:41;101299.63;;;35.52;57.41
35419;BME280;21525;41.240;16.500;2022-07-23T12:23:09;101295.09;;;35.68;56.79
35419;BME280;21525;41.240;16.500;2022-07-23T12:25:41;101304.38;;;35.50;59.93
35419;BME280;21525;41.240;16.500;2022-07-23T12:28:08;101292.69;;;36.70;55.74
35419;BME280;21525;41.240;16.500;2022-07-23T12:30:43;101303.00;;;35.54;58.07
35419;BME280;21525;41.240;16.500;2022-07-23T12:33:53;101296.06;;;36.08;57.03
35419;BME280;21525;41.240;16.500;2022-07-23T12:36:03;101288.97;;;35.75;55.11
35419;BME280;21525;41.240;16.500;2022-07-23T12:38:37;101290.66;;;35.76;50.33
35419;BME280;21525;41.240;16.500;2022-07-23T12:41:03;101287.97;;;35.84;50.74
35419;BME280;21525;41.240;16.500;2022-07-23T12:43:33;101284.97;;;36.50;50.01
35419;BME280;21525;41.240;16.500;2022-07-23T12:46:10;101280.97;;;36.38;45.56
35419;BME280;21525;41.240;16.500;2022-07-23T12:51:29;101293.69;;;36.77;44.83
35419;BME280;21525;41.240;16.500;2022-07-23T12:53:58;101284.59;;;35.90;45.67
35419;BME280;21525;41.240;16.500;2022-07-23T12:56:35;101293.53;;;35.33;43.83
35419;BME280;21525;41.240;16.500;2022-07-23T12:59:06;101283.81;;;36.45;40.24
35419;BME280;21525;41.240;16.500;2022-07-23T13:01:36;101286.94;;;35.77;43.64
35419;BME280;21525;41.240;16.500;2022-07-23T13:06:37;101279.09;;;36.39;38.88
35419;BME280;21525;41.240;16.500;2022-07-23T13:09:08;101278.72;;;36.50;38.17
35419;BME280;21525;41.240;16.500;2022-07-23T13:11:34;101273.97;;;36.44;40.62
35419;BME280;21525;41.240;16.500;2022-07-23T13:14:01;101263.44;;;36.01;39.66
35419;BME280;21525;41.240;16.500;2022-07-23T13:16:28;101278.97;;;35.75;40.21
35419;BME280;21525;41.240;16.500;2022-07-23T13:18:54;101276.97;;;35.37;43.06
35419;BME280;21525;41.240;16.500;2022-07-23T13:21:22;101268.38;;;36.53;36.93
35419;BME280;21525;41.240;16.500;2022-07-23T13:23:48;101280.38;;;35.39;38.31